Etusivu
METAR-TAF:

METAR-TAF

Lentoasemat :

Mikkeli, Suomi

Mikkelin lentoasema

Leveyspiiri: 61-44N, Pituuspiiri: 027-18E, korkeus merenpinnasta: 138 m

Tämänhetkinen sää

Tämä raportti tehtiin 27 minuuttia sitten, kello 20.20 UTC
Tuuli 1 kn eri suunnista
Lämpötila 12°C
Kosteus 94%
Ilmanpaine 1017 hPa
Näkyvyys 10 km tai enemmän
ei pilviä alle 1500 m:ssä eikä cumulonimbus-pilviä

METAR: EFMI 212020Z AUTO VRB01KT CAVOK 12/11 Q1017

Aika: 23:47 (20:47 UTC)


TAF: puuttuu

Säähavainnot ja -ennusteet yli 4000 lentoasemalta (METAR- ja TAF-raportit).

Käytössä olevat sääasemat on merkitty karttaan keltaisilla ja punaisilla pisteillä.

Aseta hiiri pisteen päälle nähdäksesi sääaseman nimen.

Klikkaa sitten nähdäksesi säähavainnot ja -ennusteet.

Kartan vaihtaminen: klikkaa mustalla rastilla varustettuja vihreitä pisteitä, niin voit zoomata sisään; viivalla varustettua vihreää pistettä, niin voit zoomata ulos tai vihreitä nuolia, niin pääset viereisille kartoille.


METAR-TAF: